createdAt,value
2022-11-24T00:00:42.670Z,6.80
2022-11-24T00:03:28.654Z,9.50
2022-11-24T00:06:16.063Z,8.93
2022-11-24T00:09:03.641Z,9.32
2022-11-24T00:11:49.859Z,8.43
2022-11-24T00:14:36.327Z,7.63
2022-11-24T00:17:22.486Z,12.13
2022-11-24T00:20:09.196Z,11.63
2022-11-24T00:22:56.079Z,13.60
2022-11-24T00:25:42.113Z,8.20
2022-11-24T00:28:28.137Z,6.93
2022-11-24T00:31:22.922Z,5.57
2022-11-24T00:34:13.803Z,4.38
2022-11-24T00:37:00.019Z,4.53
2022-11-24T00:39:46.105Z,4.32
2022-11-24T00:42:32.160Z,4.30
2022-11-24T00:45:18.079Z,4.30
2022-11-24T00:48:04.153Z,3.90
2022-11-24T00:50:58.483Z,3.67
2022-11-24T00:53:45.277Z,3.30
2022-11-24T00:56:31.526Z,4.50
2022-11-24T00:59:17.387Z,5.47
2022-11-24T01:02:03.473Z,6.47
2022-11-24T01:04:49.439Z,3.95
2022-11-24T01:07:35.829Z,3.38
2022-11-24T01:10:21.679Z,2.67
2022-11-24T01:13:07.509Z,3.00
2022-11-24T01:15:53.537Z,2.72
2022-11-24T01:18:39.362Z,2.22
2022-11-24T01:21:25.312Z,2.20
2022-11-24T01:24:11.557Z,2.30
2022-11-24T01:26:57.577Z,2.20
2022-11-24T01:29:43.421Z,2.53
2022-11-24T01:32:29.423Z,2.40
2022-11-24T01:35:15.503Z,4.28
2022-11-24T01:38:01.383Z,3.80
2022-11-24T01:40:47.297Z,2.60
2022-11-24T01:43:33.754Z,2.20
2022-11-24T01:46:33.631Z,2.83
2022-11-24T01:49:39.864Z,2.20
2022-11-24T01:52:36.363Z,2.40
2022-11-24T01:55:28.779Z,3.13
2022-11-24T01:58:19.363Z,2.85
2022-11-24T02:01:05.555Z,2.17
2022-11-24T02:03:52.294Z,2.80
2022-11-24T02:06:40.091Z,2.40
2022-11-24T02:09:56.108Z,2.83
2022-11-24T02:12:44.421Z,2.50
2022-11-24T02:15:30.380Z,2.67
2022-11-24T02:18:16.652Z,3.13
2022-11-24T02:21:02.479Z,3.00
2022-11-24T02:23:51.075Z,2.47
2022-11-24T02:26:45.879Z,2.40
2022-11-24T02:29:31.876Z,2.55
2022-11-24T02:32:18.532Z,2.13
2022-11-24T02:35:06.240Z,2.00
2022-11-24T02:37:52.240Z,2.38
2022-11-24T02:40:38.131Z,2.55
2022-11-24T02:43:24.497Z,2.30
2022-11-24T02:46:10.948Z,2.00
2022-11-24T02:48:57.283Z,2.70
2022-11-24T02:51:43.454Z,2.50
2022-11-24T02:54:29.286Z,2.60
2022-11-24T02:57:15.420Z,2.42
2022-11-24T03:00:01.616Z,2.13
2022-11-24T03:02:47.635Z,2.47
2022-11-24T03:05:33.931Z,3.00
2022-11-24T03:08:19.831Z,2.70
2022-11-24T03:11:05.988Z,3.70
2022-11-24T03:13:52.651Z,6.00
2022-11-24T03:16:38.912Z,5.90
2022-11-24T03:19:24.692Z,6.18
2022-11-24T03:22:12.828Z,6.50
2022-11-24T03:24:59.358Z,7.18
2022-11-24T03:27:45.991Z,6.70
2022-11-24T03:30:32.045Z,6.93
2022-11-24T03:33:18.071Z,5.60
2022-11-24T03:36:05.259Z,3.00
2022-11-24T03:38:51.209Z,2.40
2022-11-24T03:41:37.292Z,1.85
2022-11-24T03:44:23.462Z,1.65
2022-11-24T03:47:11.051Z,1.67
2022-11-24T03:49:57.300Z,1.85
2022-11-24T03:52:43.639Z,1.58
2022-11-24T03:55:29.817Z,1.25
2022-11-24T03:58:16.037Z,1.25
2022-11-24T04:01:02.072Z,1.40
2022-11-24T04:03:47.987Z,1.65
2022-11-24T04:06:34.144Z,1.25
2022-11-24T04:09:20.091Z,1.30
2022-11-24T04:12:24.975Z,1.30
2022-11-24T04:15:16.025Z,1.30
2022-11-24T04:18:01.954Z,1.80
2022-11-24T04:20:52.711Z,1.42
2022-11-24T04:23:38.835Z,1.92
2022-11-24T04:26:24.873Z,1.63
2022-11-24T04:29:11.024Z,1.80
2022-11-24T04:31:57.310Z,2.42
2022-11-24T04:34:43.755Z,4.00
2022-11-24T04:37:29.853Z,3.78
2022-11-24T04:40:16.249Z,2.28
2022-11-24T04:43:02.288Z,1.75
2022-11-24T04:45:48.077Z,2.60
2022-11-24T04:48:34.001Z,4.72
2022-11-24T04:51:19.907Z,2.47
2022-11-24T04:54:07.546Z,3.70
2022-11-24T04:56:53.522Z,3.72
2022-11-24T04:59:39.339Z,3.25
2022-11-24T05:02:25.155Z,3.15
2022-11-24T05:05:11.224Z,2.90
2022-11-24T05:07:59.943Z,2.67
2022-11-24T05:10:46.046Z,2.50
2022-11-24T05:13:31.846Z,2.50
2022-11-24T05:16:17.742Z,2.45
2022-11-24T05:19:03.830Z,2.20
2022-11-24T05:21:49.930Z,2.50
2022-11-24T05:24:36.004Z,2.38
2022-11-24T05:27:22.402Z,2.30
2022-11-24T05:30:08.859Z,2.20
2022-11-24T05:32:55.199Z,2.15
2022-11-24T05:35:41.332Z,2.30
2022-11-24T05:38:27.203Z,2.00
2022-11-24T05:41:13.087Z,1.58
2022-11-24T05:43:59.193Z,1.48
2022-11-24T05:46:45.172Z,1.70
2022-11-24T05:49:30.932Z,1.48
2022-11-24T05:52:16.942Z,1.30
2022-11-24T05:55:03.763Z,1.10
2022-11-24T05:57:49.667Z,1.20
2022-11-24T06:00:36.750Z,1.00
2022-11-24T06:03:23.702Z,1.15
2022-11-24T06:06:10.896Z,1.10
2022-11-24T06:08:56.729Z,1.10
2022-11-24T06:11:43.338Z,1.25
2022-11-24T06:14:29.529Z,1.35
2022-11-24T06:17:15.342Z,0.90
2022-11-24T06:20:01.384Z,1.23
2022-11-24T06:22:48.318Z,1.30
2022-11-24T06:25:34.215Z,1.13
2022-11-24T06:35:26.477Z,1.17
2022-11-24T06:38:12.558Z,1.27
2022-11-24T06:41:00.003Z,1.10
2022-11-24T06:43:46.329Z,1.05
2022-11-24T06:46:32.904Z,1.15
2022-11-24T06:49:19.234Z,1.15
2022-11-24T06:52:05.146Z,1.00
2022-11-24T06:54:50.976Z,1.05
2022-11-24T06:57:36.862Z,1.00
2022-11-24T07:00:22.919Z,1.20
2022-11-24T07:03:15.380Z,1.10
2022-11-24T07:08:47.290Z,1.23
2022-11-24T07:11:33.462Z,0.90
2022-11-24T07:14:19.491Z,1.33
2022-11-24T07:17:05.464Z,1.40
2022-11-24T07:19:51.320Z,1.10
2022-11-24T07:22:37.143Z,1.08
2022-11-24T07:25:26.580Z,1.10
2022-11-24T07:28:12.825Z,1.38
2022-11-24T07:30:59.038Z,1.20
2022-11-24T07:33:52.605Z,0.90
2022-11-24T07:36:38.466Z,1.10
2022-11-24T07:39:24.354Z,1.20
2022-11-24T07:42:11.454Z,1.23
2022-11-24T07:44:57.393Z,1.30
2022-11-24T07:47:43.291Z,1.15
2022-11-24T07:50:29.245Z,1.13
2022-11-24T07:53:15.371Z,1.15
2022-11-24T07:56:02.909Z,1.17
2022-11-24T07:58:52.851Z,1.25
2022-11-24T08:01:39.370Z,1.10
2022-11-24T08:04:25.511Z,1.30
2022-11-24T08:07:11.349Z,1.30
2022-11-24T08:09:57.092Z,1.00
2022-11-24T08:12:44.057Z,1.63
2022-11-24T08:15:30.048Z,1.05
2022-11-24T08:18:15.938Z,1.50
2022-11-24T08:21:02.362Z,1.50
2022-11-24T08:23:48.081Z,1.38
2022-11-24T08:26:34.120Z,1.77
2022-11-24T08:29:20.088Z,1.90
2022-11-24T08:32:06.070Z,1.35
2022-11-24T08:34:56.343Z,1.45
2022-11-24T08:37:45.814Z,1.85
2022-11-24T08:40:32.326Z,1.85
2022-11-24T08:43:18.599Z,1.55
2022-11-24T08:46:10.534Z,1.45
2022-11-24T08:48:56.610Z,1.20
2022-11-24T08:51:43.460Z,1.10
2022-11-24T08:54:29.576Z,1.40
2022-11-24T08:57:21.460Z,1.08
2022-11-24T09:00:09.709Z,1.30
2022-11-24T09:02:59.059Z,1.33
2022-11-24T09:05:53.057Z,1.20
2022-11-24T09:08:40.035Z,1.00
2022-11-24T09:11:27.135Z,1.13
2022-11-24T09:14:13.293Z,1.30
2022-11-24T09:16:59.642Z,1.27
2022-11-24T09:19:45.661Z,1.05
2022-11-24T09:22:31.930Z,1.20
2022-11-24T09:25:17.862Z,1.30
2022-11-24T09:28:04.351Z,1.00
2022-11-24T09:30:51.068Z,1.55
2022-11-24T09:33:37.557Z,1.13
2022-11-24T09:36:23.996Z,1.33
2022-11-24T09:39:10.910Z,1.10
2022-11-24T09:42:12.960Z,1.20
2022-11-24T09:45:56.974Z,1.13
2022-11-24T09:48:40.027Z,1.67
2022-11-24T09:51:29.405Z,1.40
2022-11-24T09:54:19.824Z,1.70
2022-11-24T09:57:07.178Z,5.78
2022-11-24T09:59:55.820Z,1.60
2022-11-24T10:02:41.654Z,1.20
2022-11-24T10:05:29.460Z,1.08
2022-11-24T10:08:21.403Z,1.20
2022-11-24T10:11:14.043Z,1.10
2022-11-24T10:14:21.533Z,0.90
2022-11-24T10:17:07.630Z,1.00
2022-11-24T10:20:09.632Z,1.23
2022-11-24T10:23:18.717Z,0.80
2022-11-24T10:26:09.073Z,1.25
2022-11-24T10:28:56.477Z,1.40
2022-11-24T10:31:43.815Z,1.00
2022-11-24T10:34:34.601Z,0.90
2022-11-24T10:37:28.835Z,0.90
2022-11-24T10:41:05.451Z,0.98
2022-11-24T10:43:52.194Z,1.00
2022-11-24T10:46:39.606Z,0.85
2022-11-24T10:49:29.300Z,0.90
2022-11-24T10:52:16.558Z,1.00
2022-11-24T10:55:04.693Z,1.27
2022-11-24T10:57:50.689Z,1.30
2022-11-24T11:00:36.886Z,1.20
2022-11-24T11:03:33.273Z,0.98
2022-11-24T11:06:24.840Z,0.95
2022-11-24T11:09:16.846Z,1.00
2022-11-24T11:12:42.212Z,1.10
2022-11-24T11:15:25.996Z,1.02
2022-11-24T11:18:14.961Z,1.30
2022-11-24T11:21:02.295Z,0.80
2022-11-24T11:23:51.612Z,1.13
2022-11-24T11:26:38.461Z,1.08
2022-11-24T11:35:39.256Z,2.40
2022-11-24T11:38:26.591Z,4.60
2022-11-24T11:41:34.818Z,2.38
2022-11-24T11:44:44.336Z,1.50
2022-11-24T11:47:31.528Z,1.80
2022-11-24T11:50:23.841Z,1.25
2022-11-24T11:53:11.704Z,2.40
2022-11-24T11:56:04.113Z,1.90
2022-11-24T11:59:22.268Z,1.53
2022-11-24T12:02:17.379Z,1.30
2022-11-24T12:05:22.539Z,1.75
2022-11-24T12:08:23.840Z,1.90
2022-11-24T12:11:26.446Z,1.52
2022-11-24T12:14:24.673Z,1.50
2022-11-24T12:17:32.510Z,3.20
2022-11-24T12:21:00.078Z,1.63
2022-11-24T12:24:06.110Z,1.55
2022-11-24T12:27:20.937Z,1.67
2022-11-24T12:30:13.517Z,1.70
2022-11-24T12:33:00.335Z,1.42
2022-11-24T12:35:49.294Z,1.50
2022-11-24T12:38:50.521Z,1.67
2022-11-24T12:41:58.417Z,2.50
2022-11-24T12:45:09.259Z,1.90
2022-11-24T12:48:06.389Z,2.28
2022-11-24T12:50:53.932Z,1.50
2022-11-24T12:53:40.377Z,1.77
2022-11-24T12:56:31.919Z,1.80
2022-11-24T12:59:24.082Z,1.85
2022-11-24T13:02:39.967Z,1.58
2022-11-24T13:05:33.294Z,2.03
2022-11-24T13:08:19.873Z,2.20
2022-11-24T13:11:21.292Z,2.53
2022-11-24T13:14:15.323Z,1.88
2022-11-24T13:17:28.817Z,2.72
2022-11-24T13:20:18.938Z,2.33
2022-11-24T13:23:07.628Z,1.80
2022-11-24T13:26:27.272Z,2.43
2022-11-24T13:29:28.878Z,3.58
2022-11-24T13:32:15.148Z,5.07
2022-11-24T13:35:13.500Z,6.75
2022-11-24T13:37:59.548Z,2.70
2022-11-24T13:41:06.218Z,3.97
2022-11-24T13:44:15.010Z,2.63
2022-11-24T13:47:05.580Z,1.90
2022-11-24T13:49:52.621Z,1.50
2022-11-24T13:53:06.339Z,3.47
2022-11-24T13:55:59.962Z,2.20
2022-11-24T13:58:51.337Z,2.10
2022-11-24T14:01:40.852Z,3.40
2022-11-24T14:07:34.719Z,1.77
2022-11-24T14:10:36.250Z,1.90
2022-11-24T14:13:25.369Z,2.28
2022-11-24T14:16:17.674Z,3.35
2022-11-24T14:19:10.064Z,3.72
2022-11-24T14:21:56.264Z,2.00
2022-11-24T14:24:45.364Z,3.00
2022-11-24T14:27:34.180Z,3.60
2022-11-24T14:30:22.693Z,3.47
2022-11-24T14:33:16.036Z,2.83
2022-11-24T14:36:02.220Z,2.35
2022-11-24T14:38:48.291Z,3.38
2022-11-24T14:41:34.353Z,3.35
2022-11-24T14:44:27.154Z,2.45
2022-11-24T14:50:12.885Z,3.08
2022-11-24T14:52:59.279Z,2.60
2022-11-24T14:55:45.649Z,2.35
2022-11-24T14:58:36.510Z,2.38
2022-11-24T15:01:28.241Z,1.52
2022-11-24T15:07:32.450Z,3.08
2022-11-24T15:10:33.964Z,3.25
2022-11-24T15:13:23.204Z,3.63
2022-11-24T15:16:16.364Z,2.80
2022-11-24T15:19:03.085Z,2.72
2022-11-24T15:21:49.125Z,2.20
2022-11-24T15:24:49.321Z,1.83
2022-11-24T15:27:35.604Z,2.45
2022-11-24T15:30:21.443Z,2.80
2022-11-24T15:33:17.165Z,2.22
2022-11-24T15:36:03.444Z,2.58
2022-11-24T15:38:49.624Z,3.20
2022-11-24T15:41:35.718Z,3.38
2022-11-24T15:44:21.925Z,4.72
2022-11-24T15:47:08.702Z,4.22
2022-11-24T15:49:54.910Z,3.70
2022-11-24T15:52:41.770Z,3.20
2022-11-24T15:55:28.088Z,3.22
2022-11-24T15:58:14.602Z,2.83
2022-11-24T16:01:00.861Z,3.30
2022-11-24T16:03:48.187Z,3.80
2022-11-24T16:06:35.301Z,2.97
2022-11-24T16:09:21.348Z,2.65
2022-11-24T16:12:10.577Z,2.75
2022-11-24T16:14:56.905Z,2.65
2022-11-24T16:17:42.679Z,2.50
2022-11-24T16:20:28.580Z,4.47
2022-11-24T16:23:14.526Z,4.63
2022-11-24T16:26:00.400Z,5.10
2022-11-24T16:28:46.497Z,6.65
2022-11-24T16:31:32.964Z,6.75
2022-11-24T16:34:19.107Z,6.50
2022-11-24T16:37:05.024Z,8.10
2022-11-24T16:39:51.252Z,8.93
2022-11-24T16:42:37.253Z,6.90
2022-11-24T16:45:23.217Z,6.53
2022-11-24T16:48:09.103Z,6.38
2022-11-24T16:50:55.031Z,5.63
2022-11-24T16:53:41.181Z,4.78
2022-11-24T16:56:28.633Z,5.10
2022-11-24T16:59:14.819Z,4.40
2022-11-24T17:02:01.302Z,4.20
2022-11-24T17:04:47.214Z,5.07
2022-11-24T17:07:33.501Z,5.00
2022-11-24T17:10:19.720Z,4.72
2022-11-24T17:13:05.944Z,5.82
2022-11-24T17:15:54.326Z,5.78
2022-11-24T17:18:40.864Z,5.57
2022-11-24T17:21:27.793Z,4.53
2022-11-24T17:24:17.662Z,4.00
2022-11-24T17:27:03.654Z,4.88
2022-11-24T17:29:49.625Z,5.53
2022-11-24T17:32:35.754Z,4.35
2022-11-24T17:35:21.694Z,3.53
2022-11-24T17:38:07.468Z,4.22
2022-11-24T17:40:53.504Z,4.20
2022-11-24T17:43:39.647Z,3.38
2022-11-24T17:46:27.105Z,5.05
2022-11-24T17:49:13.317Z,5.30
2022-11-24T17:51:59.296Z,6.18
2022-11-24T17:54:46.759Z,7.20
2022-11-24T17:57:32.924Z,8.20
2022-11-24T18:00:19.081Z,8.55
2022-11-24T18:03:05.769Z,8.15
2022-11-24T18:05:51.748Z,7.57
2022-11-24T18:08:38.798Z,6.05
2022-11-24T18:11:31.368Z,6.03
2022-11-24T18:14:18.215Z,12.15
2022-11-24T18:17:04.470Z,10.88
2022-11-24T18:19:50.658Z,9.60
2022-11-24T18:23:04.055Z,7.50
2022-11-24T18:25:42.871Z,6.72
2022-11-24T18:28:29.036Z,5.85
2022-11-24T18:31:16.501Z,6.57
2022-11-24T18:34:04.283Z,7.07
2022-11-24T18:36:52.608Z,8.07
2022-11-24T18:39:42.136Z,9.95
2022-11-24T18:42:29.114Z,9.45
2022-11-24T18:45:15.131Z,8.52
2022-11-24T18:48:01.044Z,6.65
2022-11-24T18:50:54.673Z,8.68
2022-11-24T18:53:42.699Z,6.78
2022-11-24T18:56:29.479Z,7.85
2022-11-24T18:59:15.515Z,8.45
2022-11-24T19:02:01.384Z,8.70
2022-11-24T19:04:47.485Z,12.35
2022-11-24T19:07:33.785Z,12.35
2022-11-24T19:10:19.608Z,9.40
2022-11-24T19:13:05.689Z,8.40
2022-11-24T19:15:52.047Z,19.17
2022-11-24T19:18:38.133Z,19.20
2022-11-24T19:21:24.029Z,19.17
2022-11-24T19:24:10.451Z,19.23
2022-11-24T19:26:56.735Z,12.40
2022-11-24T19:29:43.293Z,13.00
2022-11-24T19:32:31.437Z,10.40
2022-11-24T19:35:17.586Z,14.65
2022-11-24T19:38:03.832Z,10.90
2022-11-24T19:40:49.582Z,9.27
2022-11-24T19:43:35.885Z,9.38
2022-11-24T19:46:23.040Z,9.38
2022-11-24T19:49:09.148Z,15.40
2022-11-24T19:51:55.202Z,18.38
2022-11-24T19:54:41.618Z,36.03
2022-11-24T19:57:28.135Z,45.47
2022-11-24T20:00:15.277Z,38.05
2022-11-24T20:03:01.645Z,37.08
2022-11-24T20:05:57.240Z,36.28
2022-11-24T20:08:43.618Z,37.50
2022-11-24T20:11:30.229Z,34.00
2022-11-24T20:14:18.934Z,31.85
2022-11-24T20:17:06.769Z,24.63
2022-11-24T20:19:52.685Z,20.13
2022-11-24T20:22:38.617Z,15.77
2022-11-24T20:25:25.164Z,14.05
2022-11-24T20:28:11.712Z,14.65
2022-11-24T20:31:01.927Z,12.93
2022-11-24T20:33:49.386Z,11.45
2022-11-24T20:36:37.668Z,11.27
2022-11-24T20:39:26.457Z,11.45
2022-11-24T20:42:12.533Z,14.25
2022-11-24T20:45:00.879Z,15.13
2022-11-24T20:47:46.799Z,13.15
2022-11-24T20:50:36.983Z,14.98
2022-11-24T20:53:23.009Z,16.38
2022-11-24T20:56:29.013Z,16.92
2022-11-24T20:59:24.382Z,17.08
2022-11-24T21:02:11.364Z,17.13
2022-11-24T21:04:57.493Z,19.80
2022-11-24T21:07:43.564Z,16.83
2022-11-24T21:10:29.641Z,16.63
2022-11-24T21:13:15.765Z,11.55
2022-11-24T21:16:11.610Z,15.57
2022-11-24T21:18:59.981Z,18.40
2022-11-24T21:21:47.700Z,19.20
2022-11-24T21:24:34.883Z,14.05
2022-11-24T21:27:21.366Z,12.13
2022-11-24T21:30:09.680Z,10.57
2022-11-24T21:32:56.222Z,8.20
2022-11-24T21:35:42.533Z,7.75
2022-11-24T21:38:28.767Z,7.60
2022-11-24T21:41:14.722Z,7.03
2022-11-24T21:44:00.890Z,7.63
2022-11-24T21:46:52.599Z,7.70
2022-11-24T21:49:40.090Z,7.50
2022-11-24T21:52:26.221Z,9.02
2022-11-24T21:55:12.106Z,9.85
2022-11-24T21:57:58.288Z,11.00
2022-11-24T22:00:44.263Z,9.60
2022-11-24T22:03:30.096Z,13.43
2022-11-24T22:06:17.868Z,10.55
2022-11-24T22:09:03.729Z,9.85
2022-11-24T22:11:49.910Z,9.23
2022-11-24T22:14:40.164Z,5.50
2022-11-24T22:17:30.557Z,5.90
2022-11-24T22:20:16.858Z,6.03
2022-11-24T22:23:02.762Z,5.00
2022-11-24T22:25:48.815Z,5.90
2022-11-24T22:28:36.001Z,5.93
2022-11-24T22:31:27.172Z,6.10
2022-11-24T22:34:13.233Z,5.20
2022-11-24T22:36:59.085Z,5.90
2022-11-24T22:39:44.979Z,6.65
2022-11-24T22:42:30.882Z,7.35
2022-11-24T22:45:17.000Z,5.30
2022-11-24T22:48:02.787Z,11.13
2022-11-24T22:50:48.757Z,16.05
2022-11-24T22:53:34.585Z,19.27
2022-11-24T22:56:22.667Z,15.95
2022-11-24T22:59:08.931Z,25.42
2022-11-24T23:01:54.793Z,27.23
2022-11-24T23:04:40.579Z,32.95
2022-11-24T23:07:26.664Z,33.05
2022-11-24T23:10:12.683Z,28.95
2022-11-24T23:12:58.871Z,22.00
2022-11-24T23:15:44.787Z,26.05
2022-11-24T23:18:31.460Z,31.77
2022-11-24T23:21:23.144Z,34.45
2022-11-24T23:24:10.498Z,33.72
2022-11-24T23:26:56.464Z,33.20
2022-11-24T23:29:42.189Z,31.20
2022-11-24T23:32:28.281Z,28.65
2022-11-24T23:35:14.298Z,31.02
2022-11-24T23:38:07.502Z,32.67
2022-11-24T23:40:58.537Z,30.27
2022-11-24T23:43:44.876Z,28.92
2022-11-24T23:46:31.157Z,28.35
2022-11-24T23:49:16.957Z,33.17
2022-11-24T23:52:02.898Z,30.65
2022-11-24T23:54:48.751Z,26.70
2022-11-24T23:57:34.608Z,26.65
